createdAt,value
2023-03-24T00:00:28.283Z,11.14
2023-03-24T00:03:02.443Z,10.83
2023-03-24T00:05:34.164Z,11.23
2023-03-24T00:08:05.516Z,11.22
2023-03-24T00:10:37.044Z,11.12
2023-03-24T00:13:08.380Z,10.81
2023-03-24T00:15:39.792Z,10.77
2023-03-24T00:18:11.180Z,11.14
2023-03-24T00:20:46.003Z,10.95
2023-03-24T00:23:17.573Z,10.72
2023-03-24T00:26:03.373Z,10.72
2023-03-24T00:28:36.926Z,11.05
2023-03-24T00:31:08.903Z,10.58
2023-03-24T00:33:42.120Z,10.94
2023-03-24T00:36:13.834Z,10.93
2023-03-24T00:38:48.367Z,10.95
2023-03-24T00:41:20.348Z,11.03
2023-03-24T00:43:55.312Z,10.48
2023-03-24T00:46:30.103Z,10.93
2023-03-24T00:49:07.555Z,10.52
2023-03-24T00:51:41.191Z,10.63
2023-03-24T00:54:13.932Z,10.51
2023-03-24T00:56:49.536Z,10.41
2023-03-24T00:59:21.355Z,10.63
2023-03-24T01:01:52.776Z,10.84
2023-03-24T01:04:26.461Z,10.56
2023-03-24T01:06:58.369Z,10.52
2023-03-24T01:09:29.727Z,10.74
2023-03-24T01:12:01.124Z,10.39
2023-03-24T01:14:32.973Z,10.29
2023-03-24T01:17:06.329Z,10.47
2023-03-24T01:19:37.689Z,10.73
2023-03-24T01:22:09.066Z,10.75
2023-03-24T01:24:40.543Z,10.69
2023-03-24T01:27:11.937Z,10.75
2023-03-24T01:29:43.373Z,10.69
2023-03-24T01:32:14.980Z,10.66
2023-03-24T01:34:46.735Z,10.32
2023-03-24T01:37:18.084Z,10.61
2023-03-24T01:39:51.006Z,10.55
2023-03-24T01:42:24.841Z,10.43
2023-03-24T01:45:01.523Z,10.55
2023-03-24T01:47:34.107Z,10.64
2023-03-24T01:50:06.833Z,10.54
2023-03-24T01:52:38.222Z,10.55
2023-03-24T01:55:18.410Z,10.16
2023-03-24T01:57:53.676Z,10.53
2023-03-24T02:00:25.434Z,10.51
2023-03-24T02:03:06.946Z,10.49
2023-03-24T02:17:54.887Z,10.39
2023-03-24T02:21:06.051Z,10.53
2023-03-24T02:23:40.536Z,10.50
2023-03-24T02:26:42.673Z,10.53
2023-03-24T02:29:51.482Z,10.53
2023-03-24T02:32:45.668Z,10.49
2023-03-24T02:35:44.660Z,10.53
2023-03-24T02:38:42.409Z,10.55
2023-03-24T02:41:38.712Z,10.52
2023-03-24T02:44:35.473Z,10.57
2023-03-24T02:47:20.469Z,10.58
2023-03-24T02:50:25.000Z,10.43
2023-03-24T02:53:05.626Z,10.51
2023-03-24T02:55:51.528Z,10.52
2023-03-24T02:58:49.575Z,10.53
2023-03-24T03:01:32.418Z,10.27
2023-03-24T03:04:12.895Z,10.61
2023-03-24T03:06:54.602Z,10.52
2023-03-24T03:09:28.682Z,10.54
2023-03-24T03:12:01.136Z,10.56
2023-03-24T03:14:41.618Z,10.58
2023-03-24T03:17:22.999Z,10.58
2023-03-24T03:19:58.131Z,10.57
2023-03-24T03:22:38.704Z,10.21
2023-03-24T03:25:13.290Z,10.54
2023-03-24T03:27:46.811Z,10.44
2023-03-24T03:30:28.183Z,10.16
2023-03-24T03:33:10.347Z,10.38
2023-03-24T03:36:22.094Z,10.72
2023-03-24T03:39:10.521Z,10.73
2023-03-24T03:41:42.656Z,10.25
2023-03-24T03:44:13.987Z,10.42
2023-03-24T03:46:45.578Z,10.77
2023-03-24T03:49:16.981Z,10.69
2023-03-24T03:51:50.580Z,10.69
2023-03-24T03:54:24.466Z,10.74
2023-03-24T03:56:56.924Z,10.62
2023-03-24T03:59:36.587Z,10.74
2023-03-24T04:02:34.716Z,10.92
2023-03-24T04:05:19.336Z,10.90
2023-03-24T04:08:06.149Z,10.95
2023-03-24T04:11:14.218Z,10.99
2023-03-24T04:13:58.046Z,11.12
2023-03-24T04:16:32.283Z,11.04
2023-03-24T04:19:10.165Z,11.00
2023-03-24T04:21:53.868Z,10.84
2023-03-24T04:24:40.238Z,11.11
2023-03-24T04:27:27.149Z,10.98
2023-03-24T04:30:23.497Z,11.29
2023-03-24T04:33:05.430Z,11.19
2023-03-24T04:35:49.215Z,10.89
2023-03-24T04:38:28.356Z,11.00
2023-03-24T04:41:01.522Z,10.88
2023-03-24T04:43:36.437Z,11.26
2023-03-24T04:46:09.464Z,10.93
2023-03-24T04:48:41.344Z,11.22
2023-03-24T04:51:13.295Z,11.34
2023-03-24T04:53:45.975Z,11.36
2023-03-24T04:56:53.794Z,11.38
2023-03-24T04:59:25.896Z,11.29
2023-03-24T05:01:57.266Z,11.13
2023-03-24T05:04:29.926Z,11.27
2023-03-24T05:07:01.692Z,11.21
2023-03-24T05:09:33.078Z,11.35
2023-03-24T05:12:04.522Z,11.30
2023-03-24T05:14:36.301Z,11.35
2023-03-24T05:17:07.700Z,11.30
2023-03-24T05:19:39.448Z,11.15
2023-03-24T05:22:11.705Z,11.40
2023-03-24T05:24:45.926Z,11.00
2023-03-24T05:27:17.903Z,11.41
2023-03-24T05:29:51.067Z,11.50
2023-03-24T05:32:22.706Z,11.37
2023-03-24T05:34:55.663Z,11.11
2023-03-24T05:37:27.576Z,11.52
2023-03-24T05:39:59.048Z,11.56
2023-03-24T05:42:30.614Z,11.56
2023-03-24T05:45:02.496Z,11.45
2023-03-24T05:47:34.033Z,11.59
2023-03-24T05:50:06.441Z,11.58
2023-03-24T05:52:38.117Z,11.66
2023-03-24T05:55:11.154Z,11.65
2023-03-24T05:57:43.642Z,11.68
2023-03-24T06:00:17.528Z,11.63
2023-03-24T06:02:49.592Z,11.26
2023-03-24T06:05:21.250Z,11.44
2023-03-24T06:07:58.607Z,11.36
2023-03-24T06:10:30.332Z,11.64
2023-03-24T06:13:02.028Z,11.52
2023-03-24T06:15:33.662Z,11.75
2023-03-24T06:18:05.440Z,11.77
2023-03-24T06:20:37.454Z,11.75
2023-03-24T06:23:08.949Z,11.44
2023-03-24T06:25:44.419Z,11.90
2023-03-24T06:28:18.221Z,11.90
2023-03-24T06:30:49.797Z,11.95
2023-03-24T06:33:22.226Z,11.89
2023-03-24T06:35:56.694Z,11.91
2023-03-24T06:38:28.252Z,11.95
2023-03-24T06:41:01.266Z,11.65
2023-03-24T06:43:33.036Z,12.05
2023-03-24T06:46:04.678Z,12.02
2023-03-24T06:48:36.783Z,12.09
2023-03-24T06:51:08.439Z,12.08
2023-03-24T06:53:41.425Z,12.01
2023-03-24T06:56:18.176Z,12.15
2023-03-24T06:58:49.739Z,11.76
2023-03-24T07:01:21.463Z,12.18
2023-03-24T07:03:53.287Z,12.16
2023-03-24T07:06:24.781Z,12.00
2023-03-24T07:08:57.661Z,12.29
2023-03-24T07:11:29.365Z,11.78
2023-03-24T07:14:01.028Z,12.30
2023-03-24T07:16:32.855Z,12.34
2023-03-24T07:19:04.507Z,11.93
2023-03-24T07:21:36.327Z,12.35
2023-03-24T07:24:08.938Z,12.26
2023-03-24T07:26:40.600Z,12.18
2023-03-24T07:29:12.040Z,12.16
2023-03-24T07:31:45.034Z,12.30
2023-03-24T07:34:16.641Z,12.56
2023-03-24T07:36:48.464Z,12.42
2023-03-24T07:39:21.151Z,12.32
2023-03-24T07:41:52.956Z,12.29
2023-03-24T07:44:25.954Z,12.34
2023-03-24T07:46:57.417Z,12.38
2023-03-24T07:49:28.859Z,12.55
2023-03-24T07:52:02.091Z,12.90
2023-03-24T07:54:34.522Z,12.67
2023-03-24T07:57:09.753Z,12.83
2023-03-24T07:59:42.856Z,12.75
2023-03-24T08:02:18.002Z,12.17
2023-03-24T08:04:53.735Z,12.58
2023-03-24T08:07:25.470Z,12.61
2023-03-24T08:09:56.957Z,12.34
2023-03-24T08:12:28.434Z,12.77
2023-03-24T08:15:00.162Z,12.84
2023-03-24T08:17:33.683Z,12.87
2023-03-24T08:20:12.085Z,12.57
2023-03-24T08:22:49.983Z,12.85
2023-03-24T08:25:24.856Z,12.98
2023-03-24T08:27:56.491Z,13.42
2023-03-24T08:30:28.358Z,13.32
2023-03-24T08:33:02.433Z,13.60
2023-03-24T08:35:38.959Z,13.64
2023-03-24T08:38:12.020Z,13.68
2023-03-24T08:40:43.582Z,13.75
2023-03-24T08:43:16.164Z,13.59
2023-03-24T08:45:48.230Z,13.50
2023-03-24T08:48:20.323Z,13.37
2023-03-24T08:50:52.609Z,13.28
2023-03-24T08:53:25.433Z,13.19
2023-03-24T08:55:57.908Z,13.62
2023-03-24T08:58:29.535Z,13.96
2023-03-24T09:01:02.525Z,13.80
2023-03-24T09:03:34.123Z,13.80
2023-03-24T09:06:06.239Z,14.24
2023-03-24T09:08:38.349Z,14.18
2023-03-24T09:11:16.973Z,14.14
2023-03-24T09:13:49.304Z,14.16
2023-03-24T09:18:54.718Z,14.22
2023-03-24T09:21:26.496Z,14.29
2023-03-24T09:23:57.866Z,14.35
2023-03-24T09:26:30.253Z,14.36
2023-03-24T09:29:02.093Z,14.37
2023-03-24T09:31:34.241Z,14.32
2023-03-24T09:34:05.774Z,14.45
2023-03-24T09:36:37.413Z,14.54
2023-03-24T09:39:08.928Z,14.61
2023-03-24T09:41:41.456Z,14.90
2023-03-24T09:44:43.416Z,15.40
2023-03-24T09:47:29.788Z,16.08
2023-03-24T09:50:06.674Z,15.74
2023-03-24T09:52:42.910Z,15.81
2023-03-24T09:55:23.846Z,15.43
2023-03-24T09:58:03.326Z,15.51
2023-03-24T10:00:36.343Z,15.20
2023-03-24T10:03:22.787Z,14.86
2023-03-24T10:06:01.941Z,14.07
2023-03-24T10:08:40.988Z,13.98
2023-03-24T10:11:26.489Z,14.30
2023-03-24T10:14:22.247Z,14.49
2023-03-24T10:17:00.539Z,14.43
2023-03-24T10:19:39.167Z,14.52
2023-03-24T10:22:25.995Z,15.35
2023-03-24T10:25:06.536Z,15.17
2023-03-24T10:27:51.365Z,15.20
2023-03-24T10:30:28.053Z,15.28
2023-03-24T10:32:59.528Z,15.29
2023-03-24T10:35:39.202Z,15.39
2023-03-24T10:38:20.245Z,15.60
2023-03-24T10:40:52.918Z,15.89
2023-03-24T10:43:26.374Z,16.00
2023-03-24T10:45:59.854Z,16.19
2023-03-24T10:48:42.491Z,16.47
2023-03-24T10:51:20.030Z,16.34
2023-03-24T10:53:52.146Z,16.41
2023-03-24T10:56:46.149Z,16.57
2023-03-24T10:59:32.227Z,16.58
2023-03-24T11:02:10.040Z,16.57
2023-03-24T11:04:45.264Z,16.14
2023-03-24T11:07:20.844Z,15.67
2023-03-24T11:10:01.788Z,15.12
2023-03-24T11:12:36.681Z,14.72
2023-03-24T11:15:24.521Z,14.99
2023-03-24T11:18:11.138Z,14.87
2023-03-24T11:21:04.308Z,14.86
2023-03-24T11:23:42.711Z,14.68
2023-03-24T11:26:23.930Z,15.42
2023-03-24T11:29:02.645Z,15.41
2023-03-24T11:31:39.125Z,15.28
2023-03-24T11:34:25.575Z,15.44
2023-03-24T11:37:01.728Z,16.34
2023-03-24T11:39:36.939Z,16.49
2023-03-24T11:42:11.127Z,16.64
2023-03-24T11:44:49.145Z,16.57
2023-03-24T11:47:29.411Z,16.71
2023-03-24T11:50:19.621Z,17.28
2023-03-24T11:53:06.121Z,17.20
2023-03-24T11:55:43.568Z,17.74
2023-03-24T11:58:36.977Z,17.63
2023-03-24T12:01:20.535Z,17.23
2023-03-24T12:04:15.355Z,16.97
2023-03-24T12:07:17.612Z,16.58
2023-03-24T12:10:05.376Z,16.49
2023-03-24T12:13:00.110Z,16.46
2023-03-24T12:15:53.541Z,16.09
2023-03-24T12:19:02.786Z,16.16
2023-03-24T12:22:04.403Z,15.90
2023-03-24T12:25:04.684Z,15.93
2023-03-24T12:27:48.973Z,15.67
2023-03-24T12:30:30.841Z,15.39
2023-03-24T12:33:39.802Z,15.74
2023-03-24T12:36:19.321Z,15.52
2023-03-24T12:39:01.985Z,15.49
2023-03-24T12:42:01.288Z,15.87
2023-03-24T12:44:41.439Z,15.90
2023-03-24T12:47:54.976Z,15.78
2023-03-24T12:50:35.227Z,15.47
2023-03-24T12:53:16.220Z,15.40
2023-03-24T12:56:15.762Z,15.25
2023-03-24T12:58:54.714Z,14.69
2023-03-24T13:01:44.200Z,15.31
2023-03-24T13:04:30.961Z,15.13
2023-03-24T13:07:06.927Z,15.82
2023-03-24T13:10:06.918Z,16.07
2023-03-24T13:12:53.220Z,15.74
2023-03-24T13:15:34.940Z,15.92
2023-03-24T13:18:09.438Z,16.16
2023-03-24T13:20:46.122Z,16.37
2023-03-24T13:23:39.415Z,16.44
2023-03-24T13:26:17.540Z,16.68
2023-03-24T13:28:51.780Z,16.91
2023-03-24T13:31:25.813Z,16.98
2023-03-24T13:33:59.665Z,17.25
2023-03-24T13:36:41.127Z,17.09
2023-03-24T13:39:16.900Z,17.31
2023-03-24T13:41:53.825Z,17.03
2023-03-24T13:44:38.441Z,16.37
2023-03-24T13:47:14.598Z,16.11
2023-03-24T13:50:04.618Z,15.78
2023-03-24T13:52:44.998Z,15.48
2023-03-24T13:55:26.800Z,15.29
2023-03-24T13:58:04.046Z,15.10
2023-03-24T14:01:07.374Z,15.19
2023-03-24T14:03:41.661Z,15.19
2023-03-24T14:06:46.502Z,16.04
2023-03-24T14:09:30.793Z,16.06
2023-03-24T14:12:02.062Z,16.52
2023-03-24T14:15:16.798Z,16.55
2023-03-24T14:17:53.797Z,16.18
2023-03-24T14:20:33.880Z,16.22
2023-03-24T14:23:05.519Z,16.66
2023-03-24T14:25:37.169Z,16.56
2023-03-24T14:28:29.651Z,16.51
2023-03-24T14:31:18.395Z,16.42
2023-03-24T14:34:01.933Z,16.51
2023-03-24T14:36:42.351Z,16.47
2023-03-24T14:39:27.062Z,16.52
2023-03-24T14:41:59.334Z,16.29
2023-03-24T14:44:53.391Z,15.73
2023-03-24T14:47:29.957Z,15.72
2023-03-24T14:50:11.963Z,15.68
2023-03-24T14:52:52.829Z,15.19
2023-03-24T14:55:25.570Z,15.52
2023-03-24T14:58:03.598Z,15.56
2023-03-24T15:00:51.784Z,15.06
2023-03-24T15:03:57.305Z,14.95
2023-03-24T15:06:29.074Z,15.35
2023-03-24T15:09:06.923Z,15.46
2023-03-24T15:11:40.787Z,15.05
2023-03-24T15:14:25.276Z,15.30
2023-03-24T15:17:28.914Z,15.53
2023-03-24T15:20:00.628Z,15.43
2023-03-24T15:22:41.155Z,15.77
2023-03-24T15:25:15.306Z,15.80
2023-03-24T15:27:51.429Z,15.82
2023-03-24T15:30:22.993Z,15.77
2023-03-24T15:32:55.175Z,15.96
2023-03-24T15:35:26.617Z,16.20
2023-03-24T15:37:59.076Z,16.20
2023-03-24T15:40:32.774Z,15.90
2023-03-24T15:43:06.829Z,15.75
2023-03-24T15:45:49.545Z,15.89
2023-03-24T15:48:28.518Z,15.47
2023-03-24T15:51:11.325Z,15.63
2023-03-24T15:53:49.000Z,15.50
2023-03-24T15:56:26.691Z,15.51
2023-03-24T15:59:15.400Z,15.09
2023-03-24T16:01:50.186Z,15.19
2023-03-24T16:04:23.304Z,15.34
2023-03-24T16:06:54.691Z,15.55
2023-03-24T16:09:37.286Z,15.50
2023-03-24T16:12:13.084Z,15.50
2023-03-24T16:14:44.698Z,15.51
2023-03-24T16:17:16.074Z,15.39
2023-03-24T16:19:47.423Z,14.84
2023-03-24T16:22:18.969Z,14.71
2023-03-24T16:24:50.589Z,15.00
2023-03-24T16:27:21.967Z,15.00
2023-03-24T16:29:53.752Z,15.00
2023-03-24T16:32:25.124Z,14.97
2023-03-24T16:34:56.537Z,14.48
2023-03-24T16:37:27.869Z,14.83
2023-03-24T16:39:59.680Z,14.47
2023-03-24T16:42:32.085Z,14.47
2023-03-24T16:45:03.693Z,14.25
2023-03-24T16:47:35.183Z,14.13
2023-03-24T16:50:27.576Z,13.98
2023-03-24T16:52:59.213Z,13.88
2023-03-24T16:55:31.819Z,13.75
2023-03-24T16:58:04.233Z,13.66
2023-03-24T17:00:39.498Z,13.28
2023-03-24T17:03:13.704Z,13.38
2023-03-24T17:05:51.242Z,12.91
2023-03-24T17:08:22.701Z,12.89
2023-03-24T17:10:55.094Z,13.13
2023-03-24T17:13:26.584Z,12.83
2023-03-24T17:15:57.907Z,12.56
2023-03-24T17:18:29.407Z,12.84
2023-03-24T17:21:01.468Z,12.71
2023-03-24T17:23:34.724Z,12.53
2023-03-24T17:26:06.560Z,12.55
2023-03-24T17:28:38.057Z,12.46
2023-03-24T17:31:09.940Z,11.98
2023-03-24T17:33:41.789Z,12.41
2023-03-24T17:36:16.722Z,12.14
2023-03-24T17:38:48.589Z,12.21
2023-03-24T17:41:19.890Z,12.14
2023-03-24T17:43:51.280Z,12.05
2023-03-24T17:46:22.800Z,11.91
2023-03-24T17:48:54.104Z,11.71
2023-03-24T17:51:25.595Z,11.41
2023-03-24T17:53:56.947Z,11.73
2023-03-24T17:56:28.498Z,11.56
2023-03-24T17:58:59.970Z,11.21
2023-03-24T18:01:34.940Z,11.07
2023-03-24T18:04:06.659Z,11.54
2023-03-24T18:06:38.604Z,11.22
2023-03-24T18:09:11.384Z,11.41
2023-03-24T18:11:42.776Z,10.80
2023-03-24T18:14:14.158Z,10.83
2023-03-24T18:16:46.502Z,11.12
2023-03-24T18:19:17.986Z,11.04
2023-03-24T18:21:49.345Z,10.96
2023-03-24T18:24:20.798Z,10.73
2023-03-24T18:26:52.639Z,10.92
2023-03-24T18:29:24.276Z,10.82
2023-03-24T18:31:55.799Z,10.76
2023-03-24T18:34:27.905Z,10.48
2023-03-24T18:36:59.398Z,10.49
2023-03-24T18:39:30.762Z,10.65
2023-03-24T18:42:02.083Z,10.61
2023-03-24T18:44:33.780Z,10.52
2023-03-24T18:47:06.180Z,10.02
2023-03-24T18:49:37.654Z,10.34
2023-03-24T18:52:09.828Z,10.27
2023-03-24T18:54:41.353Z,10.21
2023-03-24T18:57:13.136Z,10.11
2023-03-24T18:59:44.510Z,10.09
2023-03-24T19:02:16.110Z,9.99
2023-03-24T19:04:48.207Z,9.98
2023-03-24T19:07:26.054Z,9.56
2023-03-24T19:09:57.543Z,10.00
2023-03-24T19:12:28.838Z,9.91
2023-03-24T19:15:01.550Z,9.81
2023-03-24T19:17:33.319Z,9.91
2023-03-24T19:20:07.192Z,9.84
2023-03-24T19:22:41.500Z,9.69
2023-03-24T19:25:15.376Z,9.88
2023-03-24T19:27:46.978Z,9.69
2023-03-24T19:30:18.423Z,9.69
2023-03-24T19:32:50.188Z,9.15
2023-03-24T19:35:21.566Z,9.02
2023-03-24T19:37:53.415Z,9.08
2023-03-24T19:40:24.921Z,9.45
2023-03-24T19:42:56.430Z,9.29
2023-03-24T19:45:27.793Z,9.15
2023-03-24T19:47:59.267Z,9.42
2023-03-24T19:50:30.779Z,9.42
2023-03-24T19:53:02.158Z,8.89
2023-03-24T19:55:35.964Z,9.23
2023-03-24T19:58:07.388Z,9.19
2023-03-24T20:00:38.766Z,9.26
2023-03-24T20:03:10.926Z,9.35
2023-03-24T20:05:42.316Z,9.25
2023-03-24T20:08:14.113Z,9.17
2023-03-24T20:10:45.411Z,9.13
2023-03-24T20:13:17.465Z,9.09
2023-03-24T20:15:49.140Z,9.08
2023-03-24T20:18:20.686Z,9.01
2023-03-24T20:20:54.972Z,9.00
2023-03-24T20:23:26.412Z,8.72
2023-03-24T20:25:59.776Z,8.84
2023-03-24T20:28:31.159Z,8.38
2023-03-24T20:31:03.946Z,8.90
2023-03-24T20:33:35.906Z,8.78
2023-03-24T20:36:07.871Z,8.66
2023-03-24T20:38:39.234Z,8.68
2023-03-24T20:41:10.771Z,8.66
2023-03-24T20:43:42.162Z,8.09
2023-03-24T20:46:17.624Z,8.55
2023-03-24T20:48:50.094Z,8.56
2023-03-24T20:51:21.850Z,8.16
2023-03-24T20:53:53.235Z,8.40
2023-03-24T20:56:25.079Z,8.45
2023-03-24T20:58:59.730Z,8.24
2023-03-24T21:01:35.932Z,7.84
2023-03-24T21:04:09.577Z,8.24
2023-03-24T21:06:43.164Z,8.32
2023-03-24T21:09:14.495Z,8.21
2023-03-24T21:11:46.198Z,8.56
2023-03-24T21:14:18.889Z,8.49
2023-03-24T21:16:51.843Z,8.06
2023-03-24T21:19:23.521Z,8.32
2023-03-24T21:21:56.026Z,8.70
2023-03-24T21:24:27.375Z,8.82
2023-03-24T21:27:00.085Z,8.89
2023-03-24T21:29:31.595Z,8.87
2023-03-24T21:32:03.238Z,8.80
2023-03-24T21:34:34.637Z,8.55
2023-03-24T21:37:05.975Z,8.64
2023-03-24T21:39:37.575Z,8.52
2023-03-24T21:42:09.178Z,8.61
2023-03-24T21:44:42.746Z,8.62
2023-03-24T21:47:14.988Z,8.45
2023-03-24T21:49:48.986Z,8.48
2023-03-24T21:52:20.486Z,8.37
2023-03-24T21:54:53.823Z,8.27
2023-03-24T21:57:25.200Z,8.37
2023-03-24T21:59:57.107Z,8.25
2023-03-24T22:02:30.299Z,7.87
2023-03-24T22:05:01.705Z,7.80
2023-03-24T22:07:39.335Z,8.08
2023-03-24T22:10:14.481Z,8.20
2023-03-24T22:12:45.810Z,8.09
2023-03-24T22:15:18.076Z,8.08
2023-03-24T22:17:50.334Z,7.59
2023-03-24T22:20:22.428Z,8.10
2023-03-24T22:22:53.886Z,8.06
2023-03-24T22:25:25.430Z,8.01
2023-03-24T22:27:56.819Z,8.00
2023-03-24T22:30:28.161Z,7.96
2023-03-24T22:32:59.549Z,7.55
2023-03-24T22:35:31.093Z,7.60
2023-03-24T22:38:02.428Z,7.71
2023-03-24T22:40:34.108Z,8.24
2023-03-24T22:43:05.483Z,8.31
2023-03-24T22:45:37.088Z,8.33
2023-03-24T22:48:08.422Z,8.73
2023-03-24T22:50:41.116Z,8.86
2023-03-24T22:53:12.453Z,8.80
2023-03-24T22:55:44.757Z,8.93
2023-03-24T22:58:16.293Z,8.93
2023-03-24T23:00:49.700Z,8.96
2023-03-24T23:03:21.150Z,8.56
2023-03-24T23:05:52.813Z,8.75
2023-03-24T23:08:24.824Z,9.06
2023-03-24T23:10:58.704Z,9.10
2023-03-24T23:13:30.694Z,9.00
2023-03-24T23:16:03.051Z,8.84
2023-03-24T23:18:34.455Z,8.94
2023-03-24T23:21:09.227Z,8.41
2023-03-24T23:23:41.437Z,8.72
2023-03-24T23:26:26.135Z,8.70
2023-03-24T23:28:58.060Z,7.80
2023-03-24T23:31:29.474Z,8.34
2023-03-24T23:34:04.328Z,8.36
2023-03-24T23:36:35.740Z,8.20
2023-03-24T23:39:07.052Z,7.80
2023-03-24T23:41:38.391Z,7.92
2023-03-24T23:44:10.057Z,8.12
2023-03-24T23:46:41.518Z,7.95
2023-03-24T23:49:13.002Z,7.96
2023-03-24T23:51:44.439Z,7.33
2023-03-24T23:54:16.220Z,7.75
2023-03-24T23:56:47.745Z,7.71
2023-03-24T23:59:19.156Z,7.68
